createdAt,value
2022-11-14T00:01:10.837Z,23.40
2022-11-14T00:03:40.207Z,23.60
2022-11-14T00:06:09.139Z,22.50
2022-11-14T00:08:37.181Z,21.33
2022-11-14T00:11:05.498Z,22.60
2022-11-14T00:13:33.321Z,22.42
2022-11-14T00:16:01.113Z,22.85
2022-11-14T00:18:29.318Z,23.00
2022-11-14T00:20:58.582Z,34.35
2022-11-14T00:23:26.366Z,21.98
2022-11-14T00:25:54.122Z,22.65
2022-11-14T00:28:21.917Z,25.63
2022-11-14T00:30:50.253Z,27.37
2022-11-14T00:33:20.893Z,22.05
2022-11-14T00:35:53.919Z,28.70
2022-11-14T00:38:23.552Z,25.90
2022-11-14T00:40:51.383Z,33.63
2022-11-14T00:43:19.504Z,28.08
2022-11-14T00:45:47.882Z,52.25
2022-11-14T00:48:16.245Z,25.33
2022-11-14T00:50:44.191Z,23.85
2022-11-14T00:53:11.983Z,24.88
2022-11-14T00:55:41.288Z,23.40
2022-11-14T00:58:09.156Z,22.63
2022-11-14T01:00:37.095Z,22.33
2022-11-14T01:03:05.085Z,29.65
2022-11-14T01:05:32.888Z,22.35
2022-11-14T01:08:00.658Z,25.15
2022-11-14T01:10:28.419Z,20.83
2022-11-14T01:12:57.549Z,21.50
2022-11-14T01:15:25.353Z,21.15
2022-11-14T01:17:53.117Z,21.40
2022-11-14T01:20:20.943Z,22.30
2022-11-14T01:22:48.710Z,18.70
2022-11-14T01:25:16.641Z,18.55
2022-11-14T01:27:44.390Z,18.35
2022-11-14T01:30:14.890Z,32.57
2022-11-14T01:32:42.669Z,17.33
2022-11-14T01:35:10.445Z,18.27
2022-11-14T01:37:38.189Z,17.00
2022-11-14T01:40:06.852Z,19.73
2022-11-14T01:42:35.353Z,17.43
2022-11-14T01:45:03.146Z,16.77
2022-11-14T01:47:34.196Z,23.00
2022-11-14T01:50:05.493Z,17.27
2022-11-14T01:52:36.929Z,19.83
2022-11-14T01:55:08.123Z,26.20
2022-11-14T01:57:39.317Z,17.40
2022-11-14T02:00:10.913Z,17.40
2022-11-14T02:02:40.245Z,17.20
2022-11-14T02:05:11.909Z,17.52
2022-11-14T02:07:41.961Z,35.00
2022-11-14T02:10:15.880Z,38.33
2022-11-14T02:12:43.926Z,17.43
2022-11-14T02:15:11.947Z,44.80
2022-11-14T02:17:42.177Z,19.83
2022-11-14T02:20:20.531Z,15.80
2022-11-14T02:22:48.314Z,15.95
2022-11-14T02:25:19.115Z,20.97
2022-11-14T02:27:46.998Z,15.77
2022-11-14T02:30:18.302Z,14.27
2022-11-14T02:35:35.559Z,17.60
2022-11-14T02:38:03.299Z,22.13
2022-11-14T02:40:31.077Z,17.20
2022-11-14T02:42:59.109Z,17.58
2022-11-14T02:45:27.077Z,17.80
2022-11-14T02:47:54.860Z,17.45
2022-11-14T02:50:22.596Z,17.65
2022-11-14T02:52:51.911Z,18.00
2022-11-14T02:55:19.676Z,18.90
2022-11-14T02:57:47.444Z,18.23
2022-11-14T03:00:15.949Z,17.50
2022-11-14T03:02:43.948Z,17.92
2022-11-14T03:05:11.824Z,22.35
2022-11-14T03:07:39.603Z,18.10
2022-11-14T03:10:09.782Z,17.77
2022-11-14T03:12:38.083Z,18.23
2022-11-14T03:15:07.282Z,17.70
2022-11-14T03:17:35.517Z,16.70
2022-11-14T03:20:03.402Z,16.02
2022-11-14T03:22:31.288Z,16.05
2022-11-14T03:24:59.056Z,17.35
2022-11-14T03:27:28.148Z,16.33
2022-11-14T03:29:55.929Z,15.77
2022-11-14T03:32:23.831Z,22.65
2022-11-14T03:34:51.785Z,31.77
2022-11-14T03:37:19.529Z,22.80
2022-11-14T03:39:47.327Z,15.98
2022-11-14T03:42:15.120Z,17.73
2022-11-14T03:44:44.202Z,17.70
2022-11-14T03:47:11.949Z,32.72
2022-11-14T03:49:40.643Z,22.73
2022-11-14T03:52:08.430Z,31.40
2022-11-14T03:54:36.202Z,17.05
2022-11-14T03:57:04.015Z,17.52
2022-11-14T03:59:31.846Z,17.87
2022-11-14T04:02:00.968Z,33.70
2022-11-14T04:04:28.951Z,17.50
2022-11-14T04:06:56.741Z,17.58
2022-11-14T04:09:24.517Z,18.98
2022-11-14T04:11:52.365Z,19.23
2022-11-14T04:14:20.145Z,27.33
2022-11-14T04:16:47.898Z,18.33
2022-11-14T04:19:17.496Z,19.20
2022-11-14T04:21:45.257Z,30.17
2022-11-14T04:24:12.998Z,16.23
2022-11-14T04:26:40.779Z,16.45
2022-11-14T04:29:08.537Z,17.13
2022-11-14T04:31:36.296Z,16.83
2022-11-14T04:34:04.138Z,17.05
2022-11-14T04:36:33.314Z,17.63
2022-11-14T04:39:01.545Z,27.85
2022-11-14T04:41:29.365Z,33.90
2022-11-14T04:43:57.114Z,26.13
2022-11-14T04:46:24.921Z,21.65
2022-11-14T04:48:52.665Z,31.50
2022-11-14T04:51:20.601Z,24.70
2022-11-14T04:53:49.673Z,18.25
2022-11-14T04:56:17.696Z,32.75
2022-11-14T04:58:45.494Z,20.42
2022-11-14T05:01:15.182Z,21.10
2022-11-14T05:03:43.102Z,19.90
2022-11-14T05:06:11.348Z,18.27
2022-11-14T05:08:39.126Z,16.85
2022-11-14T05:11:08.411Z,16.60
2022-11-14T05:13:36.200Z,15.63
2022-11-14T05:16:03.999Z,16.58
2022-11-14T05:18:32.231Z,16.65
2022-11-14T05:21:00.761Z,15.32
2022-11-14T05:23:29.029Z,15.85
2022-11-14T05:26:02.501Z,15.85
2022-11-14T05:28:32.062Z,16.73
2022-11-14T05:31:04.039Z,14.40
2022-11-14T05:33:32.285Z,15.57
2022-11-14T05:36:03.970Z,15.90
2022-11-14T05:38:32.367Z,15.25
2022-11-14T05:41:00.502Z,15.25
2022-11-14T05:43:31.749Z,15.55
2022-11-14T05:46:01.549Z,15.95
2022-11-14T05:48:31.284Z,15.60
2022-11-14T05:51:00.554Z,16.05
2022-11-14T05:53:29.851Z,15.55
2022-11-14T05:56:01.838Z,15.30
2022-11-14T05:58:31.910Z,15.13
2022-11-14T06:01:04.492Z,16.63
2022-11-14T06:03:33.821Z,14.85
2022-11-14T06:06:02.403Z,15.90
2022-11-14T06:08:30.788Z,15.75
2022-11-14T06:11:03.944Z,15.07
2022-11-14T06:13:33.411Z,14.27
2022-11-14T06:16:02.125Z,14.60
2022-11-14T06:18:30.543Z,15.48
2022-11-14T06:21:00.945Z,15.18
2022-11-14T06:23:29.467Z,14.23
2022-11-14T06:26:00.889Z,15.35
2022-11-14T06:28:29.274Z,15.98
2022-11-14T06:31:02.359Z,15.82
2022-11-14T06:33:34.107Z,15.15
2022-11-14T06:36:03.612Z,14.23
2022-11-14T06:38:32.929Z,15.25
2022-11-14T06:41:05.112Z,15.30
2022-11-14T06:43:36.349Z,14.00
2022-11-14T06:46:06.971Z,14.77
2022-11-14T06:48:35.593Z,13.05
2022-11-14T06:51:05.114Z,14.13
2022-11-14T06:53:34.330Z,14.07
2022-11-14T06:56:04.067Z,13.20
2022-11-14T06:58:34.037Z,12.95
2022-11-14T07:01:07.272Z,12.80
2022-11-14T07:03:35.533Z,12.55
2022-11-14T07:06:04.107Z,12.95
2022-11-14T07:08:32.744Z,13.35
2022-11-14T07:11:04.848Z,11.80
2022-11-14T07:13:33.522Z,12.27
2022-11-14T07:16:01.498Z,12.63
2022-11-14T07:18:33.105Z,12.35
2022-11-14T07:21:02.369Z,13.80
2022-11-14T07:23:31.302Z,13.10
2022-11-14T07:26:02.391Z,14.00
2022-11-14T07:28:30.647Z,13.57
2022-11-14T07:30:58.697Z,14.43
2022-11-14T07:33:26.845Z,16.80
2022-11-14T07:35:55.954Z,16.02
2022-11-14T07:38:23.960Z,16.55
2022-11-14T07:40:59.662Z,15.95
2022-11-14T07:43:28.662Z,16.42
2022-11-14T07:46:00.262Z,16.92
2022-11-14T07:48:28.411Z,19.10
2022-11-14T07:51:01.259Z,19.02
2022-11-14T07:53:29.747Z,19.10
2022-11-14T07:55:57.990Z,18.38
2022-11-14T07:58:25.791Z,19.63
2022-11-14T08:00:53.599Z,18.55
2022-11-14T08:03:21.467Z,18.10
2022-11-14T08:05:49.320Z,17.77
2022-11-14T08:08:18.429Z,17.75
2022-11-14T08:10:46.208Z,17.98
2022-11-14T08:16:12.011Z,19.20
2022-11-14T08:18:40.630Z,18.88
2022-11-14T08:21:08.757Z,18.83
2022-11-14T08:23:38.702Z,19.60
2022-11-14T08:26:06.849Z,19.65
2022-11-14T08:28:35.976Z,24.48
2022-11-14T08:31:05.047Z,19.67
2022-11-14T08:33:33.517Z,21.63
2022-11-14T08:36:02.429Z,20.23
2022-11-14T08:38:32.028Z,20.25
2022-11-14T08:41:01.797Z,19.88
2022-11-14T08:43:29.638Z,19.17
2022-11-14T08:46:01.936Z,19.35
2022-11-14T08:48:31.326Z,19.73
2022-11-14T08:51:02.818Z,20.88
2022-11-14T08:53:30.741Z,20.57
2022-11-14T08:55:58.526Z,21.02
2022-11-14T08:58:31.381Z,21.10
2022-11-14T09:01:03.702Z,19.55
2022-11-14T09:03:31.636Z,32.22
2022-11-14T09:06:00.249Z,26.13
2022-11-14T09:08:28.934Z,20.48
2022-11-14T09:11:04.868Z,18.98
2022-11-14T09:13:35.634Z,17.67
2022-11-14T09:16:03.549Z,18.15
2022-11-14T09:18:32.394Z,18.05
2022-11-14T09:21:05.065Z,16.50
2022-11-14T09:23:33.248Z,17.13
2022-11-14T09:26:05.359Z,16.58
2022-11-14T09:28:33.237Z,18.20
2022-11-14T09:31:03.025Z,18.88
2022-11-14T09:33:31.327Z,17.92
2022-11-14T09:35:59.884Z,19.10
2022-11-14T09:38:28.564Z,20.33
2022-11-14T09:41:05.897Z,21.20
2022-11-14T09:43:48.572Z,21.05
2022-11-14T09:46:23.454Z,23.00
2022-11-14T09:48:53.641Z,20.73
2022-11-14T09:51:23.065Z,20.30
2022-11-14T09:53:58.228Z,19.80
2022-11-14T09:56:27.381Z,19.20
2022-11-14T09:58:56.654Z,19.58
2022-11-14T10:01:37.629Z,27.92
2022-11-14T10:07:08.178Z,18.20
2022-11-14T10:09:51.393Z,17.85
2022-11-14T10:12:24.015Z,17.83
2022-11-14T10:15:07.556Z,16.30
2022-11-14T10:18:12.265Z,16.75
2022-11-14T10:20:46.076Z,16.23
2022-11-14T10:23:29.086Z,15.82
2022-11-14T10:26:03.257Z,16.42
2022-11-14T10:28:42.908Z,16.15
2022-11-14T10:31:22.236Z,16.25
2022-11-14T10:33:58.718Z,15.83
2022-11-14T10:36:44.800Z,16.37
2022-11-14T10:39:21.033Z,15.57
2022-11-14T10:42:00.758Z,15.05
2022-11-14T10:44:36.757Z,15.18
2022-11-14T10:47:08.191Z,14.88
2022-11-14T10:49:38.526Z,13.98
2022-11-14T10:52:11.638Z,14.75
2022-11-14T10:54:46.354Z,14.57
2022-11-14T10:57:17.237Z,15.20
2022-11-14T10:59:45.002Z,16.30
2022-11-14T11:02:12.901Z,18.23
2022-11-14T11:04:42.337Z,18.45
2022-11-14T11:07:42.328Z,18.73
2022-11-14T11:10:40.745Z,18.27
2022-11-14T11:13:15.780Z,17.95
2022-11-14T11:15:44.291Z,17.85
2022-11-14T11:18:28.232Z,15.57
2022-11-14T11:21:17.817Z,14.55
2022-11-14T11:23:53.844Z,14.35
2022-11-14T11:26:28.267Z,12.85
2022-11-14T11:29:08.743Z,13.02
2022-11-14T11:31:53.419Z,12.27
2022-11-14T11:34:25.356Z,12.98
2022-11-14T11:36:59.956Z,12.32
2022-11-14T11:39:30.937Z,13.02
2022-11-14T11:42:10.630Z,13.20
2022-11-14T11:44:43.426Z,12.85
2022-11-14T11:47:15.308Z,13.10
2022-11-14T11:49:53.023Z,14.02
2022-11-14T11:52:35.104Z,12.40
2022-11-14T11:55:14.209Z,12.50
2022-11-14T11:57:46.219Z,12.60
2022-11-14T12:00:17.841Z,13.60
2022-11-14T12:02:50.318Z,12.63
2022-11-14T12:05:23.347Z,13.20
2022-11-14T12:07:59.206Z,12.18
2022-11-14T12:10:30.110Z,11.73
2022-11-14T12:13:28.622Z,12.48
2022-11-14T12:16:12.709Z,13.53
2022-11-14T12:19:02.782Z,12.57
2022-11-14T12:21:48.215Z,13.13
2022-11-14T12:24:57.799Z,11.40
2022-11-14T12:27:40.265Z,11.93
2022-11-14T12:30:15.619Z,10.65
2022-11-14T12:32:47.325Z,10.63
2022-11-14T12:35:21.057Z,9.90
2022-11-14T12:37:55.624Z,9.15
2022-11-14T12:40:32.934Z,8.77
2022-11-14T12:43:02.647Z,7.93
2022-11-14T12:46:02.561Z,7.20
2022-11-14T12:48:33.493Z,8.20
2022-11-14T12:51:02.562Z,7.07
2022-11-14T12:53:44.517Z,7.18
2022-11-14T12:56:53.599Z,8.05
2022-11-14T12:59:34.748Z,6.85
2022-11-14T13:02:38.521Z,6.28
2022-11-14T13:05:39.893Z,6.93
2022-11-14T13:08:22.985Z,6.35
2022-11-14T13:10:50.757Z,6.60
2022-11-14T13:13:36.425Z,6.50
2022-11-14T13:16:35.109Z,6.40
2022-11-14T13:19:34.757Z,6.13
2022-11-14T13:22:42.042Z,6.38
2022-11-14T13:25:21.384Z,6.80
2022-11-14T13:31:18.966Z,6.43
2022-11-14T13:33:48.730Z,6.43
2022-11-14T13:36:28.598Z,6.50
2022-11-14T13:39:26.203Z,6.75
2022-11-14T13:42:25.651Z,7.18
2022-11-14T13:45:25.985Z,6.28
2022-11-14T13:48:24.397Z,6.47
2022-11-14T13:50:56.510Z,6.38
2022-11-14T13:53:29.414Z,6.20
2022-11-14T13:56:02.980Z,6.20
2022-11-14T13:59:05.198Z,6.72
2022-11-14T14:01:48.735Z,6.68
2022-11-14T14:04:30.714Z,6.90
2022-11-14T14:07:08.419Z,8.15
2022-11-14T14:09:48.984Z,7.90
2022-11-14T14:12:40.954Z,7.00
2022-11-14T14:15:19.185Z,8.05
2022-11-14T14:17:57.125Z,7.15
2022-11-14T14:20:34.494Z,7.68
2022-11-14T14:23:13.042Z,7.40
2022-11-14T14:25:52.425Z,6.65
2022-11-14T14:28:30.948Z,7.35
2022-11-14T14:31:03.638Z,8.73
2022-11-14T14:33:41.604Z,10.13
2022-11-14T14:36:21.046Z,8.93
2022-11-14T14:38:49.701Z,10.45
2022-11-14T14:41:20.958Z,9.82
2022-11-14T14:43:55.331Z,8.80
2022-11-14T14:46:34.274Z,8.07
2022-11-14T14:49:05.351Z,7.63
2022-11-14T14:51:35.782Z,7.80
2022-11-14T14:54:03.928Z,6.65
2022-11-14T14:56:33.212Z,8.10
2022-11-14T14:59:16.764Z,7.03
2022-11-14T15:01:44.731Z,7.00
2022-11-14T15:04:16.554Z,7.15
2022-11-14T15:06:47.520Z,8.77
2022-11-14T15:09:18.890Z,7.53
2022-11-14T15:11:51.292Z,7.97
2022-11-14T15:14:22.462Z,7.93
2022-11-14T15:16:51.108Z,7.78
2022-11-14T15:19:21.697Z,8.85
2022-11-14T15:22:04.018Z,8.35
2022-11-14T15:24:32.238Z,7.97
2022-11-14T15:27:05.210Z,9.50
2022-11-14T15:29:33.923Z,10.77
2022-11-14T15:32:03.299Z,8.18
2022-11-14T15:34:32.939Z,9.30
2022-11-14T15:37:22.709Z,9.40
2022-11-14T15:39:50.554Z,9.90
2022-11-14T15:42:28.658Z,9.35
2022-11-14T15:44:57.388Z,10.80
2022-11-14T15:47:27.356Z,11.07
2022-11-14T15:50:05.740Z,11.60
2022-11-14T15:52:36.070Z,14.02
2022-11-14T15:55:04.899Z,11.57
2022-11-14T15:57:39.550Z,12.57
2022-11-14T16:00:08.671Z,10.82
2022-11-14T16:02:46.262Z,10.63
2022-11-14T16:05:15.743Z,11.57
2022-11-14T16:07:43.813Z,11.32
2022-11-14T16:10:15.821Z,12.27
2022-11-14T16:12:50.994Z,10.85
2022-11-14T16:15:21.684Z,12.68
2022-11-14T16:17:51.096Z,12.95
2022-11-14T16:20:21.262Z,13.77
2022-11-14T16:22:50.523Z,12.65
2022-11-14T16:25:20.250Z,15.25
2022-11-14T16:27:49.642Z,13.93
2022-11-14T16:30:19.693Z,12.90
2022-11-14T16:32:49.424Z,13.57
2022-11-14T16:35:18.950Z,12.80
2022-11-14T16:37:47.144Z,13.48
2022-11-14T16:40:18.124Z,12.57
2022-11-14T16:42:46.298Z,14.82
2022-11-14T16:45:15.865Z,12.98
2022-11-14T16:47:43.930Z,13.40
2022-11-14T16:50:11.840Z,13.32
2022-11-14T16:52:40.547Z,13.05
2022-11-14T16:55:09.588Z,14.13
2022-11-14T16:57:37.958Z,12.67
2022-11-14T17:00:07.687Z,13.55
2022-11-14T17:02:36.826Z,13.60
2022-11-14T17:05:04.931Z,13.50
2022-11-14T17:07:33.437Z,13.97
2022-11-14T17:10:01.879Z,13.10
2022-11-14T17:12:29.948Z,12.75
2022-11-14T17:14:57.862Z,13.40
2022-11-14T17:17:26.040Z,13.07
2022-11-14T17:19:55.278Z,12.27
2022-11-14T17:22:23.040Z,12.98
2022-11-14T17:24:50.894Z,11.87
2022-11-14T17:27:18.728Z,12.30
2022-11-14T17:29:47.230Z,11.40
2022-11-14T17:32:15.021Z,11.80
2022-11-14T17:34:42.877Z,11.63
2022-11-14T17:37:12.112Z,11.87
2022-11-14T17:39:39.865Z,10.98
2022-11-14T17:42:08.272Z,11.98
2022-11-14T17:44:36.439Z,11.27
2022-11-14T17:47:04.222Z,10.70
2022-11-14T17:49:32.190Z,11.82
2022-11-14T17:52:00.029Z,11.18
2022-11-14T17:54:29.187Z,11.05
2022-11-14T17:56:57.446Z,10.57
2022-11-14T17:59:25.266Z,10.27
2022-11-14T18:01:54.483Z,9.82
2022-11-14T18:04:22.364Z,10.70
2022-11-14T18:06:50.427Z,10.07
2022-11-14T18:09:18.281Z,10.13
2022-11-14T18:11:47.457Z,10.93
2022-11-14T18:14:15.378Z,9.90
2022-11-14T18:17:10.353Z,9.68
2022-11-14T18:19:31.073Z,9.73
2022-11-14T18:21:58.975Z,9.40
2022-11-14T18:24:27.002Z,10.77
2022-11-14T18:26:56.193Z,9.73
2022-11-14T18:29:24.085Z,9.80
2022-11-14T18:31:51.975Z,9.60
2022-11-14T18:34:19.875Z,9.90
2022-11-14T18:36:48.257Z,9.18
2022-11-14T18:39:16.051Z,8.82
2022-11-14T18:41:43.852Z,9.30
2022-11-14T18:44:13.038Z,8.90
2022-11-14T18:46:40.897Z,8.30
2022-11-14T18:49:08.852Z,8.97
2022-11-14T18:51:41.932Z,9.32
2022-11-14T18:54:11.265Z,8.30
2022-11-14T18:56:39.773Z,9.20
2022-11-14T18:59:08.224Z,8.68
2022-11-14T19:01:37.506Z,9.27
2022-11-14T19:04:07.001Z,8.43
2022-11-14T19:06:36.548Z,8.95
2022-11-14T19:09:10.801Z,9.48
2022-11-14T19:11:56.819Z,10.10
2022-11-14T19:14:24.808Z,9.32
2022-11-14T19:16:54.145Z,9.23
2022-11-14T19:19:22.461Z,9.07
2022-11-14T19:21:50.504Z,9.20
2022-11-14T19:24:18.757Z,9.05
2022-11-14T19:26:46.560Z,10.10
2022-11-14T19:29:14.510Z,9.35
2022-11-14T19:31:43.249Z,8.90
2022-11-14T19:34:12.516Z,9.70
2022-11-14T19:39:28.691Z,9.75
2022-11-14T19:41:56.549Z,8.85
2022-11-14T19:44:24.394Z,9.80
2022-11-14T19:46:52.384Z,11.02
2022-11-14T19:49:21.636Z,11.10
2022-11-14T19:51:49.983Z,10.52
2022-11-14T19:54:17.867Z,10.25
2022-11-14T19:56:46.108Z,10.48
2022-11-14T19:59:15.511Z,10.75
2022-11-14T20:01:45.873Z,10.82
2022-11-14T20:04:14.234Z,9.75
2022-11-14T20:06:43.540Z,11.10
2022-11-14T20:09:12.200Z,10.02
2022-11-14T20:11:40.121Z,10.70
2022-11-14T20:14:08.255Z,10.68
2022-11-14T20:16:37.666Z,10.53
2022-11-14T20:19:05.861Z,10.10
2022-11-14T20:21:35.249Z,10.65
2022-11-14T20:24:04.934Z,12.20
2022-11-14T20:26:32.789Z,10.90
2022-11-14T20:29:00.693Z,11.27
2022-11-14T20:31:30.198Z,10.27
2022-11-14T20:33:58.189Z,9.90
2022-11-14T20:36:35.348Z,10.05
2022-11-14T20:39:14.006Z,10.13
2022-11-14T20:41:42.074Z,10.30
2022-11-14T20:44:10.102Z,9.52
2022-11-14T20:46:38.072Z,9.80
2022-11-14T20:49:07.988Z,10.88
2022-11-14T20:51:36.550Z,10.70
2022-11-14T20:54:04.576Z,9.77
2022-11-14T20:56:33.863Z,11.35
2022-11-14T20:59:01.731Z,10.75
2022-11-14T21:01:29.713Z,10.48
2022-11-14T21:03:57.634Z,10.55
2022-11-14T21:06:25.421Z,10.80
2022-11-14T21:08:53.248Z,10.40
2022-11-14T21:11:22.320Z,10.60
2022-11-14T21:13:57.444Z,10.15
2022-11-14T21:16:27.862Z,10.38
2022-11-14T21:18:56.728Z,10.88
2022-11-14T21:21:27.218Z,11.00
2022-11-14T21:23:56.080Z,10.00
2022-11-14T21:26:25.612Z,10.45
2022-11-14T21:28:57.401Z,10.13
2022-11-14T21:31:27.446Z,11.18
2022-11-14T21:33:57.677Z,9.50
2022-11-14T21:39:16.309Z,10.23
2022-11-14T21:41:45.211Z,10.13
2022-11-14T21:44:16.410Z,9.55
2022-11-14T21:46:46.135Z,8.93
2022-11-14T21:49:13.992Z,9.73
2022-11-14T21:51:42.007Z,8.55
2022-11-14T21:54:10.316Z,9.68
2022-11-14T21:56:38.650Z,9.70
2022-11-14T21:59:18.653Z,8.57
2022-11-14T22:02:06.340Z,10.40
2022-11-14T22:04:34.675Z,8.77
2022-11-14T22:07:03.908Z,8.50
2022-11-14T22:09:32.326Z,8.77
2022-11-14T22:12:00.471Z,8.45
2022-11-14T22:14:30.249Z,8.80
2022-11-14T22:16:58.770Z,8.55
2022-11-14T22:19:26.589Z,8.90
2022-11-14T22:21:54.390Z,8.30
2022-11-14T22:24:22.508Z,10.02
2022-11-14T22:26:50.322Z,9.17
2022-11-14T22:29:18.093Z,9.35
2022-11-14T22:31:47.479Z,8.25
2022-11-14T22:34:15.431Z,8.55
2022-11-14T22:36:43.290Z,8.80
2022-11-14T22:39:11.113Z,7.93
2022-11-14T22:41:39.050Z,8.60
2022-11-14T22:44:07.054Z,8.00
2022-11-14T22:46:34.917Z,12.00
2022-11-14T22:49:04.690Z,18.15
2022-11-14T22:51:32.702Z,10.27
2022-11-14T22:54:00.460Z,8.52
2022-11-14T22:56:29.981Z,8.82
2022-11-14T22:59:00.170Z,9.45
2022-11-14T23:01:29.823Z,9.55
2022-11-14T23:03:59.148Z,8.85
2022-11-14T23:06:29.478Z,8.33
2022-11-14T23:08:57.359Z,7.88
2022-11-14T23:11:27.115Z,9.02
2022-11-14T23:13:56.270Z,8.25
2022-11-14T23:16:25.868Z,9.25
2022-11-14T23:18:55.512Z,8.15
2022-11-14T23:21:25.236Z,8.20
2022-11-14T23:23:55.563Z,8.70
2022-11-14T23:26:24.187Z,8.15
2022-11-14T23:28:52.081Z,8.82
2022-11-14T23:31:19.953Z,8.93
2022-11-14T23:33:48.144Z,8.57
2022-11-14T23:36:16.611Z,9.18
2022-11-14T23:38:44.582Z,8.50
2022-11-14T23:41:18.239Z,8.52
2022-11-14T23:43:46.353Z,9.17
2022-11-14T23:46:14.488Z,8.48
2022-11-14T23:48:43.033Z,8.02
2022-11-14T23:51:11.422Z,7.93
2022-11-14T23:53:39.167Z,7.50
2022-11-14T23:56:07.267Z,8.30
2022-11-14T23:58:36.401Z,8.20
